Estación Meteorológica Peña el Pijo (Robertgarden) [ 01/17/18 13:54:00 CET ]

Fecha Hora Presion(HPa) Temp (°C) Humedad % Rocio (°C) Viento ( m/s) Direccion Lluvia 1Hora(mm) Lluvia 24H(mm) LLuvia Total(mm)
2018-Jan-16 01:01:51 1016.300 -1.3 85 -3.5       20.72 59.05
2018-Jan-16 02:01:41 1016.100 -1.6 85 -3.8       20.20 59.05
2018-Jan-16 03:10:08 1016.100 -1.6 83 -4.1       20.20 59.05
2018-Jan-16 04:08:07 1016.200 -1.5 82 -4.2       20.20 59.05
2018-Jan-16 05:01:47 1015.700 -1.4 80 -4.4       20.20 59.05
2018-Jan-16 06:01:40 1015.700 -1.5 80 -4.5       20.20 59.05
2018-Jan-16 07:01:49 1015.800 -0.9 79 -4.1       20.20 59.05
2018-Jan-16 08:01:47 1016.000 -0.7 78 -4.1       20.20 59.05
2018-Jan-16 09:01:52 1016.400 -0.2 78 -3.6       20.20 59.05
2018-Jan-16 10:01:43 1016.500 3.2 76 -0.6       20.20 59.05
2018-Jan-16 11:01:51 1017.000 9.2 62 2.3       18.64 59.05
2018-Jan-16 12:01:54 1016.700 12.6 54 3.5     2.07 15.54 61.12
2018-Jan-16 13:01:47 1016.000 12.8 52 3.1     1.03 11.39 62.16
2018-Jan-16 14:01:51 1015.300 14.2 50 4.0       8.28 62.16
2018-Jan-16 15:01:50 1014.800 14.9 47 3.6 1.8 WNW   5.69 62.16
2018-Jan-16 16:01:42 1014.700 14.8 48 3.9       3.10 62.16
2018-Jan-16 17:01:43 1014.700 12.3 53 2.9       3.10 62.16
2018-Jan-16 18:01:51 1014.700 8.3 62 1.4       3.10 62.16
2018-Jan-16 19:01:43 1014.900 6.8 70 1.7       3.10 62.16
2018-Jan-16 20:01:58 1015.200 5.5 74 1.2       3.10 62.16
2018-Jan-16 21:01:44 1015.100 5.1 77 1.4       3.10 62.16
2018-Jan-16 22:01:50 1015.100 4.4 78 0.9       3.10 62.16
2018-Jan-16 23:01:39 1015.100 3.9 80 0.8       3.10 62.16

Temperatura Máxima:14°    Temperatura Mínima:-1°
Presión Máxima:1017.000 Hpa    Presión Mínima:1014.700 Hpa


Volver